Terminal Aerodrome Forecast
Issued by NWS

Home | Current Version | Previous Version | Graphics & Text | Print | Product List | Glossary On
Versions: 1 2 3 4 5 6 7 8 9 10 11 12 13 14
000
FTUS43 KPAH 271100
TAFCGI
TAF
KCGI 271120Z 2712/2812 34011G17KT P6SM OVC015
     FM271900 33009KT P6SM SCT025
     FM280000 00000KT P6SM SCT070 BKN150=

USA.gov is the U.S. government's official web portal to all federal, state and local government web resources and services.